Time;durP1;ratioP1;P1;durP2;ratioP2;P2;SDS_P1;SDS_P2;PMS_P1;PMS_P2;Temp;Humidity;BMP_temperature;BMP_pressure;BME280_temperature;BME280_humidity;BME280_pressure;Samples;Min_cycle;Max_cycle;Signal;HPM_P1;HPM_P2
2022/08/07 00:01:49;;;;;;;7.53;5.47;;;12.20;99.90;;;;;;4971598;28;20046;-81
2022/08/07 00:04:15;;;;;;;7.50;5.32;;;12.00;99.90;;;;;;4973663;28;20042;-80
2022/08/07 00:06:42;;;;;;;10.27;6.25;;;12.00;99.90;;;;;;4985831;28;20449;-80
2022/08/07 00:09:10;;;;;;;8.30;6.15;;;11.90;99.90;;;;;;4964168;28;20058;-81
2022/08/07 00:11:36;;;;;;;7.25;6.25;;;11.90;99.90;;;;;;4948828;28;20042;-81
2022/08/07 00:14:02;;;;;;;8.75;6.78;;;11.80;99.90;;;;;;4948688;28;20054;-81
2022/08/07 00:16:30;;;;;;;8.95;5.60;;;11.80;99.90;;;;;;4966736;28;20061;-81
2022/08/07 00:18:56;;;;;;;8.88;6.53;;;11.90;99.90;;;;;;4946804;28;20063;-81
2022/08/07 00:21:22;;;;;;;9.00;6.43;;;11.90;99.90;;;;;;4962531;28;20122;-81
2022/08/07 00:23:48;;;;;;;7.05;5.38;;;11.90;99.90;;;;;;4947042;28;20057;-81
2022/08/07 00:26:15;;;;;;;6.72;5.65;;;11.90;99.90;;;;;;4930217;28;20057;-81
2022/08/07 00:28:42;;;;;;;8.15;5.80;;;11.90;99.90;;;;;;4932558;28;20296;-81
2022/08/07 00:31:09;;;;;;;9.70;6.10;;;11.90;99.90;;;;;;4931973;28;20042;-81
2022/08/07 00:33:37;;;;;;;8.60;6.10;;;11.90;99.90;;;;;;4960680;28;20101;-81
2022/08/07 00:36:05;;;;;;;8.27;5.60;;;11.90;99.90;;;;;;4966347;28;20057;-81
2022/08/07 00:38:32;;;;;;;10.35;6.13;;;11.80;99.90;;;;;;4934785;28;20051;-81
2022/08/07 00:40:59;;;;;;;7.78;5.82;;;11.80;99.90;;;;;;4947228;28;20054;-81
2022/08/07 00:43:26;;;;;;;7.18;5.57;;;11.80;99.90;;;;;;4931010;28;20150;-81
2022/08/07 00:45:52;;;;;;;7.60;5.88;;;11.80;99.90;;;;;;4971775;28;20104;-81
2022/08/07 00:48:18;;;;;;;7.22;5.22;;;11.80;99.90;;;;;;4950534;28;20051;-81
2022/08/07 00:50:44;;;;;;;9.38;5.97;;;11.70;99.90;;;;;;4944713;28;20042;-81
2022/08/07 00:53:11;;;;;;;7.50;5.78;;;11.80;99.90;;;;;;4929830;28;20043;-81
2022/08/07 00:55:37;;;;;;;7.05;5.95;;;11.80;99.90;;;;;;4898585;28;20056;-81
2022/08/07 00:58:03;;;;;;;7.45;5.40;;;11.70;99.90;;;;;;4965825;28;20081;-81
2022/08/07 01:00:29;;;;;;;6.97;5.95;;;11.70;99.90;;;;;;4946014;28;20499;-81
2022/08/07 01:02:56;;;;;;;8.35;5.97;;;11.60;99.90;;;;;;4939493;28;20043;-81
2022/08/07 01:05:22;;;;;;;8.25;6.03;;;11.60;99.90;;;;;;4931939;28;20042;-81
2022/08/07 01:07:49;;;;;;;7.22;6.05;;;11.60;99.90;;;;;;4931859;28;20050;-81
2022/08/07 01:10:16;;;;;;;7.90;6.65;;;11.50;99.90;;;;;;4934970;29;20546;-81
2022/08/07 01:12:42;;;;;;;7.65;5.60;;;11.60;99.90;;;;;;4977252;28;20138;-81
2022/08/07 01:15:09;;;;;;;7.05;5.07;;;11.60;99.90;;;;;;4960419;28;20046;-82
2022/08/07 01:17:35;;;;;;;6.13;5.00;;;11.50;99.90;;;;;;4915272;28;20258;-82
2022/08/07 01:20:08;;;;;;;8.55;5.80;;;11.60;99.90;;;;;;4915617;28;20039;-82
2022/08/07 01:22:37;;;;;;;7.32;6.18;;;11.50;99.90;;;;;;4932270;28;20054;-82
2022/08/07 01:25:04;;;;;;;7.82;5.45;;;11.60;99.90;;;;;;4928912;28;20050;-82
2022/08/07 01:27:30;;;;;;;6.38;5.10;;;11.60;99.90;;;;;;4943577;28;20043;-82
2022/08/07 01:29:57;;;;;;;6.47;5.22;;;11.60;99.90;;;;;;4932596;28;20078;-82
2022/08/07 01:32:24;;;;;;;10.20;5.65;;;11.70;99.90;;;;;;4958950;28;20050;-82
2022/08/07 01:34:53;;;;;;;8.75;6.65;;;11.70;99.90;;;;;;4959700;28;20066;-82
2022/08/07 01:37:20;;;;;;;6.82;5.93;;;11.80;99.90;;;;;;4944655;28;20095;-82
2022/08/07 01:39:48;;;;;;;7.32;6.00;;;11.90;99.90;;;;;;4976597;28;20385;-81
2022/08/07 01:42:25;;;;;;;8.65;6.40;;;11.90;99.90;;;;;;4961051;28;20046;-81
2022/08/07 01:44:52;;;;;;;7.13;5.90;;;12.00;99.90;;;;;;4976877;28;20101;-82
2022/08/07 01:47:19;;;;;;;7.10;5.53;;;12.10;99.90;;;;;;4951916;28;20090;-82
2022/08/07 01:49:45;;;;;;;9.65;6.45;;;12.30;99.90;;;;;;4948515;28;20540;-82
2022/08/07 01:52:12;;;;;;;7.93;6.00;;;12.30;99.90;;;;;;4965943;28;20043;-82
2022/08/07 01:54:41;;;;;;;7.90;6.05;;;12.40;99.90;;;;;;4964999;28;20050;-82
2022/08/07 01:57:19;;;;;;;8.07;6.10;;;12.50;99.90;;;;;;4915504;28;20058;-82
2022/08/07 01:59:53;;;;;;;7.50;6.55;;;12.50;99.90;;;;;;4961554;28;20565;-82
2022/08/07 02:02:26;;;;;;;8.25;5.82;;;12.50;99.90;;;;;;4943152;28;20047;-84
2022/08/07 02:04:58;;;;;;;8.63;6.50;;;12.50;99.90;;;;;;4962890;28;20066;-82
2022/08/07 02:07:34;;;;;;;9.05;6.32;;;12.50;99.90;;;;;;4965668;28;20157;-82
2022/08/07 02:10:03;;;;;;;8.13;5.75;;;12.50;99.90;;;;;;4972645;28;20050;-82
2022/08/07 02:12:36;;;;;;;9.05;6.32;;;12.50;99.90;;;;;;4967493;28;20556;-80
2022/08/07 02:15:04;;;;;;;8.73;6.63;;;12.40;99.90;;;;;;4981583;28;20034;-82
2022/08/07 02:17:38;;;;;;;7.53;5.75;;;12.40;99.90;;;;;;4966241;28;20077;-82
2022/08/07 02:20:06;;;;;;;7.53;5.82;;;12.40;99.90;;;;;;4981925;28;20550;-82
2022/08/07 02:22:34;;;;;;;8.25;6.47;;;12.40;99.90;;;;;;4979740;28;20042;-81
2022/08/07 02:25:01;;;;;;;7.15;5.70;;;12.30;99.90;;;;;;4994808;28;20054;-81
2022/08/07 02:27:28;;;;;;;8.38;6.03;;;12.20;99.90;;;;;;4981583;28;20069;-81
2022/08/07 02:29:57;;;;;;;7.97;5.85;;;12.20;99.90;;;;;;4997623;28;20731;-82
2022/08/07 02:32:32;;;;;;;8.38;5.63;;;12.20;99.90;;;;;;4996180;28;20046;-83
2022/08/07 02:34:59;;;;;;;10.50;6.75;;;12.10;99.90;;;;;;4970978;28;20054;-82
2022/08/07 02:37:29;;;;;;;7.55;5.93;;;12.10;99.90;;;;;;4949144;28;20124;-82
2022/08/07 02:39:56;;;;;;;8.40;5.45;;;12.00;99.90;;;;;;4953856;28;20054;-82
2022/08/07 02:42:23;;;;;;;6.57;5.32;;;11.90;99.90;;;;;;4984774;28;20041;-82
2022/08/07 02:44:52;;;;;;;7.10;5.65;;;11.90;99.90;;;;;;4963275;28;20506;-83
2022/08/07 02:47:21;;;;;;;7.00;5.13;;;11.90;99.90;;;;;;4979720;28;20596;-82
2022/08/07 02:49:50;;;;;;;8.45;5.82;;;11.80;99.90;;;;;;4996836;28;20066;-82
2022/08/07 02:52:26;;;;;;;7.78;5.45;;;11.70;99.90;;;;;;4967265;28;20038;-83
2022/08/07 02:54:53;;;;;;;8.05;5.80;;;11.70;99.90;;;;;;4947491;28;20042;-82
2022/08/07 02:57:21;;;;;;;7.78;5.47;;;11.60;99.90;;;;;;4966254;28;20076;-82
2022/08/07 02:59:49;;;;;;;8.57;5.57;;;11.50;99.90;;;;;;4948490;28;20058;-82
2022/08/07 03:02:18;;;;;;;7.18;5.50;;;11.50;99.90;;;;;;4945093;28;20474;-83
2022/08/07 03:04:46;;;;;;;8.60;5.50;;;11.50;99.90;;;;;;4960121;28;20054;-82
2022/08/07 03:07:12;;;;;;;7.53;5.78;;;11.50;99.90;;;;;;4974956;28;20046;-83
2022/08/07 03:09:41;;;;;;;7.07;5.75;;;11.50;99.90;;;;;;4947793;28;20061;-83
2022/08/07 03:12:08;;;;;;;6.55;5.63;;;11.50;99.90;;;;;;4944333;28;20089;-83
2022/08/07 03:14:38;;;;;;;7.80;5.55;;;11.50;99.90;;;;;;4946465;28;20070;-82
2022/08/07 03:17:05;;;;;;;7.00;5.28;;;11.50;99.90;;;;;;4979687;28;20069;-82
2022/08/07 03:19:34;;;;;;;7.45;5.78;;;11.60;99.90;;;;;;4931788;28;20061;-81
2022/08/07 03:22:03;;;;;;;6.47;5.22;;;11.60;99.90;;;;;;4930644;28;20050;-83
2022/08/07 03:24:30;;;;;;;7.97;5.97;;;11.50;99.90;;;;;;4996785;28;20481;-82
2022/08/07 03:27:03;;;;;;;7.22;5.70;;;11.50;99.90;;;;;;4977650;28;20085;-83
2022/08/07 03:29:45;;;;;;;6.82;6.05;;;11.40;99.90;;;;;;4978324;28;20160;-83
2022/08/07 03:32:14;;;;;;;6.97;4.97;;;11.30;99.90;;;;;;4967795;28;20044;-83
2022/08/07 03:34:44;;;;;;;7.15;5.25;;;11.30;99.90;;;;;;4931720;28;20081;-82
2022/08/07 03:37:11;;;;;;;7.07;5.68;;;11.30;99.90;;;;;;4961646;28;20597;-84
2022/08/07 03:39:38;;;;;;;7.53;5.60;;;11.30;99.90;;;;;;4930422;28;20038;-82
2022/08/07 03:42:05;;;;;;;7.18;5.55;;;11.20;99.90;;;;;;4946218;28;20082;-83
2022/08/07 03:44:34;;;;;;;7.10;5.88;;;11.30;99.90;;;;;;4947838;28;20050;-83
2022/08/07 03:47:01;;;;;;;6.63;5.55;;;11.20;99.90;;;;;;4962217;28;20042;-82
2022/08/07 03:49:28;;;;;;;8.07;5.70;;;11.20;99.90;;;;;;4980058;28;20607;-82
2022/08/07 03:51:55;;;;;;;9.60;6.53;;;11.10;99.90;;;;;;4929687;28;20046;-83
2022/08/07 03:54:22;;;;;;;7.50;6.00;;;11.10;99.90;;;;;;4963471;28;20528;-82
2022/08/07 03:56:49;;;;;;;9.65;5.53;;;11.10;99.90;;;;;;4961733;28;20054;-82
2022/08/07 03:59:16;;;;;;;7.72;6.18;;;11.10;99.90;;;;;;4962770;28;20085;-82
2022/08/07 04:01:47;;;;;;;6.57;5.35;;;11.10;99.90;;;;;;4949265;28;20054;-83
2022/08/07 04:04:16;;;;;;;7.22;6.40;;;11.00;99.90;;;;;;4935069;28;20129;-83
2022/08/07 04:06:43;;;;;;;8.32;5.95;;;10.90;99.90;;;;;;4932211;28;20050;-83
2022/08/07 04:09:15;;;;;;;7.90;6.28;;;10.90;99.90;;;;;;4979982;28;20057;-82
2022/08/07 04:11:44;;;;;;;8.65;6.68;;;10.80;99.90;;;;;;4962159;28;20043;-82
2022/08/07 04:14:11;;;;;;;7.28;6.40;;;10.80;99.90;;;;;;4931256;28;20045;-83
2022/08/07 04:16:37;;;;;;;9.20;6.90;;;10.80;99.90;;;;;;5011837;28;20050;-82
2022/08/07 04:19:06;;;;;;;8.52;6.15;;;10.80;99.90;;;;;;4956005;28;20046;-83
2022/08/07 04:21:32;;;;;;;9.05;6.07;;;10.80;99.90;;;;;;4954519;28;20680;-82
2022/08/07 04:24:01;;;;;;;7.50;5.70;;;10.80;99.90;;;;;;4944362;28;20059;-82
2022/08/07 04:26:28;;;;;;;7.68;5.88;;;10.90;99.90;;;;;;4960423;28;20054;-83
2022/08/07 04:28:55;;;;;;;8.02;5.18;;;11.00;99.90;;;;;;4931742;28;20093;-83
2022/08/07 04:31:25;;;;;;;7.28;5.45;;;10.90;99.90;;;;;;4945285;28;20101;-82
2022/08/07 04:33:52;;;;;;;7.97;5.78;;;11.00;99.90;;;;;;4962664;28;20124;-83
2022/08/07 04:36:18;;;;;;;8.25;6.57;;;11.00;99.90;;;;;;4930410;28;20076;-83
2022/08/07 04:38:45;;;;;;;8.55;6.15;;;11.00;99.90;;;;;;4947468;28;20054;-83
2022/08/07 04:41:12;;;;;;;8.63;6.28;;;11.00;99.90;;;;;;4986187;28;20121;-83
2022/08/07 04:43:45;;;;;;;9.02;7.03;;;11.10;99.90;;;;;;4934896;28;20702;-83
2022/08/07 04:46:26;;;;;;;9.80;7.00;;;11.10;99.90;;;;;;4953589;28;20050;-83
2022/08/07 04:48:55;;;;;;;10.18;6.93;;;11.20;99.90;;;;;;4963467;28;20042;-83
2022/08/07 04:51:28;;;;;;;10.13;7.40;;;11.20;99.90;;;;;;4993270;28;20043;-83
2022/08/07 04:53:59;;;;;;;8.80;6.88;;;11.20;99.90;;;;;;4995487;28;20070;-83
2022/08/07 04:56:39;;;;;;;11.05;7.60;;;11.30;99.90;;;;;;4962806;28;20104;-83
2022/08/07 04:59:44;;;;;;;8.93;6.95;;;11.40;99.90;;;;;;4989457;28;20054;-83
2022/08/07 05:02:21;;;;;;;8.57;7.13;;;11.40;99.90;;;;;;4930655;28;20126;-83
2022/08/07 05:04:59;;;;;;;9.30;7.22;;;11.50;99.90;;;;;;4964221;28;20129;-83
2022/08/07 05:07:41;;;;;;;9.40;7.63;;;11.60;99.90;;;;;;4928966;28;20418;-83
2022/08/07 05:10:15;;;;;;;12.55;7.63;;;11.60;99.90;;;;;;4969826;28;20082;-83
2022/08/07 05:12:50;;;;;;;9.40;8.10;;;11.70;99.90;;;;;;4958641;28;20042;-83
2022/08/07 05:15:24;;;;;;;11.07;7.93;;;11.90;99.90;;;;;;4979093;28;20042;-83
2022/08/07 05:18:01;;;;;;;11.52;7.50;;;12.20;99.90;;;;;;4993922;28;20128;-83
2022/08/07 05:20:43;;;;;;;8.15;6.68;;;12.70;99.90;;;;;;4939858;28;20051;-83
2022/08/07 05:23:21;;;;;;;8.43;7.25;;;13.10;99.90;;;;;;4940536;28;20134;-84
2022/08/07 05:25:51;;;;;;;7.50;6.20;;;13.50;99.90;;;;;;4959271;28;20043;-84
2022/08/07 05:28:18;;;;;;;7.85;6.60;;;13.70;99.90;;;;;;4961014;28;20043;-83
2022/08/07 05:30:45;;;;;;;7.90;6.07;;;13.80;99.90;;;;;;4982192;28;20047;-83
2022/08/07 05:33:13;;;;;;;8.60;6.15;;;14.00;99.90;;;;;;4988906;28;20093;-83
2022/08/07 05:35:41;;;;;;;11.65;6.22;;;14.20;99.90;;;;;;4932135;28;20498;-86
2022/08/07 05:38:10;;;;;;;9.60;6.15;;;14.30;99.90;;;;;;4976622;28;20039;-84
2022/08/07 05:40:39;;;;;;;9.93;7.22;;;14.50;99.90;;;;;;4946534;28;20129;-84
2022/08/07 05:43:05;;;;;;;11.55;7.13;;;14.60;99.90;;;;;;4943412;28;20078;-84
2022/08/07 05:45:32;;;;;;;8.45;6.28;;;14.70;99.90;;;;;;4956755;28;20043;-84
2022/08/07 05:48:03;;;;;;;8.73;6.43;;;14.70;99.90;;;;;;4976224;28;20073;-83
2022/08/07 05:50:37;;;;;;;6.80;6.10;;;14.70;99.90;;;;;;4975529;28;20599;-84
2022/08/07 05:53:03;;;;;;;6.32;5.68;;;14.80;99.90;;;;;;4976672;28;20122;-84
2022/08/07 05:55:34;;;;;;;8.13;6.03;;;15.00;99.90;;;;;;4959546;28;20046;-84
2022/08/07 05:58:02;;;;;;;6.88;6.00;;;15.20;99.90;;;;;;4978115;28;20129;-84
2022/08/07 06:00:32;;;;;;;7.97;6.00;;;15.50;99.90;;;;;;4952892;28;20054;-83
2022/08/07 06:03:05;;;;;;;7.95;6.60;;;15.70;99.90;;;;;;4977805;28;20050;-80
2022/08/07 06:05:33;;;;;;;7.53;6.50;;;15.80;99.90;;;;;;4988823;28;20105;-81
2022/08/07 06:08:05;;;;;;;7.38;6.57;;;15.90;99.90;;;;;;4948246;28;20050;-83
2022/08/07 06:10:32;;;;;;;10.57;7.85;;;16.10;99.90;;;;;;4964640;28;20069;-82
2022/08/07 06:13:00;;;;;;;10.88;9.77;;;16.20;99.90;;;;;;4936086;28;20505;-83
2022/08/07 06:15:28;;;;;;;10.40;9.38;;;16.40;99.90;;;;;;4982441;28;20058;-85
2022/08/07 06:17:55;;;;;;;13.82;10.35;;;16.60;99.90;;;;;;4949386;28;20053;-83
2022/08/07 06:20:22;;;;;;;13.05;11.65;;;16.80;99.90;;;;;;4981124;28;20081;-83
2022/08/07 06:22:50;;;;;;;12.70;11.40;;;17.00;99.90;;;;;;4947051;28;20076;-83
2022/08/07 06:25:24;;;;;;;13.45;11.85;;;17.20;99.90;;;;;;4956315;28;20084;-82
2022/08/07 06:27:51;;;;;;;13.60;12.20;;;17.40;99.90;;;;;;4976114;28;20147;-82
2022/08/07 06:30:17;;;;;;;13.93;11.85;;;17.50;99.90;;;;;;4947640;28;20046;-86
2022/08/07 06:32:43;;;;;;;12.63;11.35;;;17.80;99.90;;;;;;4962000;28;20038;-83
2022/08/07 06:35:09;;;;;;;13.88;12.13;;;18.00;99.90;;;;;;4959040;28;20074;-83
2022/08/07 06:37:37;;;;;;;13.80;12.18;;;18.10;99.90;;;;;;4963259;28;20049;-82
2022/08/07 06:40:04;;;;;;;12.63;11.35;;;18.30;99.90;;;;;;4980663;28;20141;-82
2022/08/07 06:42:36;;;;;;;13.13;10.77;;;18.30;99.90;;;;;;4961240;28;20054;-83
2022/08/07 06:45:19;;;;;;;11.82;10.63;;;18.40;99.90;;;;;;4956010;28;20054;-85
2022/08/07 06:47:51;;;;;;;13.43;12.05;;;18.50;99.90;;;;;;4964352;28;20042;-86
2022/08/07 06:50:18;;;;;;;14.32;12.10;;;18.80;99.90;;;;;;4977517;28;20554;-86
2022/08/07 06:52:50;;;;;;;12.25;10.60;;;19.00;99.90;;;;;;4980256;28;20046;-87
2022/08/07 06:55:23;;;;;;;14.48;11.27;;;19.20;99.90;;;;;;4984284;28;20046;-87
2022/08/07 06:57:51;;;;;;;12.10;10.00;;;19.40;99.90;;;;;;4961069;28;20049;-83
2022/08/07 07:00:20;;;;;;;12.02;10.25;;;19.40;99.90;;;;;;4965671;28;20058;-79
2022/08/07 07:02:48;;;;;;;9.50;8.60;;;19.70;99.90;;;;;;4949508;28;20042;-79
2022/08/07 07:05:14;;;;;;;9.27;7.40;;;19.70;99.90;;;;;;4963929;28;20049;-78
2022/08/07 07:07:47;;;;;;;8.93;7.85;;;19.90;99.90;;;;;;4945505;28;20651;-79
2022/08/07 07:10:13;;;;;;;10.23;8.18;;;20.30;99.90;;;;;;4982007;28;20190;-80
2022/08/07 07:12:51;;;;;;;8.32;7.38;;;20.50;99.90;;;;;;4941361;28;20054;-79
2022/08/07 07:15:23;;;;;;;8.70;7.10;;;20.70;99.90;;;;;;4911718;28;20043;-80
2022/08/07 07:18:10;;;;;;;8.93;7.38;;;20.60;99.90;;;;;;4959038;28;20050;-78
2022/08/07 07:20:42;;;;;;;5.93;5.32;;;20.90;99.90;;;;;;4956240;28;20042;-84
2022/08/07 07:23:10;;;;;;;8.05;5.70;;;21.30;99.90;;;;;;4975513;28;20057;-84
2022/08/07 07:25:39;;;;;;;8.18;6.15;;;21.50;99.90;;;;;;4946569;28;20055;-84
2022/08/07 07:28:15;;;;;;;6.28;5.55;;;21.70;99.90;;;;;;4941589;28;20053;-84
2022/08/07 07:30:47;;;;;;;6.00;5.22;;;21.90;99.90;;;;;;4941874;28;20043;-85
2022/08/07 07:33:16;;;;;;;6.22;5.50;;;22.30;99.90;;;;;;4961961;28;20136;-84
2022/08/07 07:35:44;;;;;;;8.00;6.35;;;22.60;99.50;;;;;;4973800;28;20082;-84
2022/08/07 07:38:12;;;;;;;5.68;5.03;;;22.70;99.90;;;;;;4979355;28;20053;-84
2022/08/07 07:40:40;;;;;;;7.68;4.53;;;23.00;99.20;;;;;;4948850;28;20050;-86
2022/08/07 07:43:08;;;;;;;6.35;5.03;;;22.90;98.20;;;;;;4976012;28;20718;-85
2022/08/07 07:45:37;;;;;;;7.07;5.03;;;23.00;97.30;;;;;;4930363;28;20612;-85
2022/08/07 07:48:05;;;;;;;7.03;4.93;;;23.10;96.90;;;;;;4942773;28;20038;-85
2022/08/07 07:50:31;;;;;;;6.25;4.78;;;23.10;95.90;;;;;;4961907;28;20077;-85
2022/08/07 07:52:58;;;;;;;6.30;4.30;;;23.30;94.00;;;;;;4974935;28;20062;-85
2022/08/07 07:55:26;;;;;;;5.55;4.35;;;23.50;92.40;;;;;;4950231;28;20116;-85
2022/08/07 07:57:55;;;;;;;4.45;3.85;;;23.30;91.10;;;;;;4912784;28;20089;-85
2022/08/07 08:00:23;;;;;;;6.40;3.70;;;23.40;87.80;;;;;;4926648;28;20046;-83
2022/08/07 08:02:52;;;;;;;4.55;3.65;;;23.20;90.40;;;;;;4961960;28;20054;-81
2022/08/07 08:05:20;;;;;;;4.07;3.35;;;23.50;89.60;;;;;;4944096;28;20085;-84
2022/08/07 08:07:47;;;;;;;5.13;3.30;;;23.80;87.90;;;;;;4955352;28;20053;-84
2022/08/07 08:10:14;;;;;;;4.32;3.67;;;23.70;87.60;;;;;;4960259;28;20061;-85
2022/08/07 08:12:41;;;;;;;7.35;6.25;;;24.00;84.20;;;;;;4944184;28;20054;-84
2022/08/07 08:15:07;;;;;;;6.38;4.03;;;24.00;86.10;;;;;;4945167;28;20077;-84
2022/08/07 08:17:38;;;;;;;5.03;3.75;;;24.40;82.40;;;;;;4954720;28;20149;-83
2022/08/07 08:20:07;;;;;;;4.95;3.00;;;24.50;80.30;;;;;;4925712;28;20082;-83
2022/08/07 08:28:19;;;;;;;4.53;2.60;;;24.70;73.20;;;;;;4943632;28;20055;-84
2022/08/07 08:30:48;;;;;;;3.90;2.42;;;24.70;74.30;;;;;;4932251;28;20043;-83
2022/08/07 08:33:18;;;;;;;7.13;2.50;;;24.60;71.50;;;;;;4944812;28;20049;-83
2022/08/07 08:35:50;;;;;;;3.58;2.55;;;24.80;72.70;;;;;;4928579;28;20376;-84
2022/08/07 08:38:19;;;;;;;4.20;2.50;;;25.00;71.10;;;;;;4944462;28;20408;-84
2022/08/07 08:41:17;;;;;;;4.82;3.00;;;25.10;70.80;;;;;;4979400;28;20066;-84
2022/08/07 08:44:07;;;;;;;4.82;3.40;;;25.30;66.20;;;;;;4953384;28;20066;-83
2022/08/07 08:46:42;;;;;;;5.63;4.72;;;25.30;64.80;;;;;;4974746;28;20556;-84
2022/08/07 08:49:16;;;;;;;4.82;2.97;;;25.40;66.90;;;;;;4977107;28;20058;-81
2022/08/07 08:52:09;;;;;;;3.58;3.00;;;25.30;67.40;;;;;;4944305;28;20081;-78
2022/08/07 08:54:43;;;;;;;5.63;4.15;;;25.60;65.50;;;;;;4927899;28;20109;-84
2022/08/07 08:57:20;;;;;;;6.00;3.55;;;25.90;66.10;;;;;;4965785;28;20050;-83
2022/08/07 09:00:00;;;;;;;5.18;3.95;;;26.30;63.70;;;;;;4943498;28;20101;-84
2022/08/07 09:02:38;;;;;;;4.20;3.25;;;26.30;64.00;;;;;;4976911;28;20097;-83
2022/08/07 09:05:26;;;;;;;4.55;3.10;;;26.10;62.60;;;;;;4959453;28;20958;-83
2022/08/07 09:08:12;;;;;;;6.47;4.10;;;26.50;60.70;;;;;;4958214;28;20582;-83
2022/08/07 09:10:45;;;;;;;4.70;2.97;;;26.80;60.80;;;;;;4974725;28;20065;-84
2022/08/07 09:13:15;;;;;;;3.70;2.60;;;26.70;60.00;;;;;;4978142;28;20755;-84
2022/08/07 09:15:44;;;;;;;6.60;3.85;;;26.40;58.90;;;;;;4943388;28;20042;-84
2022/08/07 09:18:15;;;;;;;4.80;2.67;;;27.00;61.30;;;;;;4946089;28;20558;-84
2022/08/07 09:21:00;;;;;;;4.00;2.53;;;26.30;58.80;;;;;;4947051;28;20860;-83
2022/08/07 09:23:48;;;;;;;7.15;5.78;;;26.70;58.30;;;;;;4970317;28;20051;-86
2022/08/07 09:26:32;;;;;;;4.60;3.08;;;27.20;59.40;;;;;;4947723;28;20077;-81
2022/08/07 09:29:10;;;;;;;5.13;2.83;;;27.10;56.70;;;;;;4930683;28;20062;-81
2022/08/07 09:31:53;;;;;;;5.75;3.53;;;27.10;56.40;;;;;;4960195;28;20451;-81
2022/08/07 09:34:51;;;;;;;5.00;2.80;;;27.10;54.80;;;;;;4961822;28;20054;-80
2022/08/07 09:37:35;;;;;;;4.47;2.85;;;27.30;56.80;;;;;;4944932;28;20072;-81
2022/08/07 09:40:46;;;;;;;5.43;3.47;;;27.20;55.70;;;;;;4930491;28;20050;-80
2022/08/07 09:43:39;;;;;;;4.45;3.30;;;26.90;53.60;;;;;;4939897;28;20636;-86
2022/08/07 09:46:12;;;;;;;4.32;3.10;;;26.50;55.40;;;;;;4942961;28;20150;-83
2022/08/07 09:48:46;;;;;;;4.90;3.08;;;26.70;55.60;;;;;;4941519;28;20283;-84
2022/08/07 09:51:35;;;;;;;4.40;2.85;;;26.70;55.00;;;;;;4958034;28;20267;-86
2022/08/07 09:54:05;;;;;;;5.95;3.40;;;26.60;55.80;;;;;;4956554;28;20589;-86
2022/08/07 09:56:52;;;;;;;4.28;3.10;;;26.60;54.70;;;;;;4926379;28;20051;-85
2022/08/07 09:59:40;;;;;;;4.65;3.28;;;26.60;55.30;;;;;;4959802;28;20050;-86
2022/08/07 10:02:24;;;;;;;5.03;3.35;;;26.60;55.00;;;;;;4961350;28;20053;-86
2022/08/07 10:05:11;;;;;;;4.95;2.83;;;27.20;52.80;;;;;;4944115;28;20189;-86
2022/08/07 10:07:54;;;;;;;2.95;1.80;;;27.50;52.50;;;;;;4991490;28;20078;-85
2022/08/07 10:10:39;;;;;;;4.57;2.20;;;26.80;49.00;;;;;;4979775;28;20152;-86
2022/08/07 10:13:27;;;;;;;4.63;2.00;;;27.00;50.80;;;;;;4980899;28;20037;-86
2022/08/07 10:15:53;;;;;;;4.95;3.60;;;27.10;52.20;;;;;;4973493;28;20053;-87
2022/08/07 10:18:32;;;;;;;6.57;5.78;;;27.10;52.90;;;;;;4928602;28;20041;-86
2022/08/07 10:21:43;;;;;;;5.53;2.45;;;27.10;54.30;;;;;;4968265;28;20050;-86
2022/08/07 10:24:34;;;;;;;2.53;2.10;;;26.50;53.30;;;;;;4962582;28;20050;-86
2022/08/07 10:27:16;;;;;;;3.53;2.22;;;27.20;54.00;;;;;;4982344;28;20073;-86
2022/08/07 10:29:54;;;;;;;4.53;2.22;;;27.80;52.80;;;;;;4979082;28;20061;-86
2022/08/07 10:32:29;;;;;;;4.05;2.17;;;27.60;51.30;;;;;;4962448;28;20038;-86
2022/08/07 10:35:20;;;;;;;3.50;2.20;;;27.80;51.60;;;;;;4968248;28;20045;-87
2022/08/07 10:37:55;;;;;;;3.83;2.35;;;28.60;49.60;;;;;;4972381;28;20848;-86
2022/08/07 10:40:32;;;;;;;3.72;2.60;;;28.70;50.90;;;;;;4974611;28;20049;-87
2022/08/07 10:43:08;;;;;;;3.55;1.85;;;28.60;50.30;;;;;;4950269;28;20055;-87
2022/08/07 10:45:37;;;;;;;3.22;2.10;;;28.90;50.60;;;;;;4950453;28;20049;-86
2022/08/07 10:48:29;;;;;;;2.50;1.70;;;28.80;50.10;;;;;;4998780;28;20111;-87
2022/08/07 10:51:21;;;;;;;2.97;2.03;;;29.00;49.70;;;;;;5015799;28;20055;-87
2022/08/07 10:53:59;;;;;;;3.08;2.15;;;28.60;48.10;;;;;;4963288;28;20057;-87
2022/08/07 10:57:03;;;;;;;3.67;1.83;;;28.40;48.90;;;;;;4965223;28;20049;-85
2022/08/07 10:59:48;;;;;;;3.03;1.80;;;28.80;48.50;;;;;;4998345;28;20517;-86
2022/08/07 11:02:48;;;;;;;2.78;1.90;;;28.80;49.60;;;;;;4959012;28;20042;-86
2022/08/07 11:05:37;;;;;;;4.05;2.00;;;29.20;49.40;;;;;;4997166;28;20124;-86
2022/08/07 11:08:21;;;;;;;2.42;1.70;;;29.00;48.50;;;;;;4942927;28;20096;-86
2022/08/07 11:10:57;;;;;;;2.95;1.90;;;29.40;48.20;;;;;;4982065;28;20635;-86
2022/08/07 11:13:24;;;;;;;2.85;1.70;;;29.60;48.00;;;;;;5000557;28;20049;-87
2022/08/07 11:15:56;;;;;;;1.80;1.40;;;29.40;48.20;;;;;;4984541;28;20050;-87
2022/08/07 11:18:45;;;;;;;2.47;1.73;;;29.50;47.40;;;;;;4999380;28;20624;-86
2022/08/07 11:21:27;;;;;;;3.33;1.65;;;29.50;46.10;;;;;;4966166;28;20533;-86
2022/08/07 11:24:09;;;;;;;3.55;1.42;;;29.40;46.20;;;;;;4969693;28;20204;-86
2022/08/07 11:27:01;;;;;;;2.90;1.90;;;29.70;46.30;;;;;;4966953;28;20394;-77
2022/08/07 11:29:42;;;;;;;2.25;1.52;;;30.30;46.40;;;;;;4966035;28;20469;-84
2022/08/07 11:32:41;;;;;;;4.78;1.80;;;30.20;46.30;;;;;;4968243;28;20132;-85
2022/08/07 11:35:18;;;;;;;2.30;1.75;;;29.60;45.40;;;;;;4949058;28;20053;-86
2022/08/07 11:38:08;;;;;;;2.58;1.48;;;29.80;45.90;;;;;;4981490;28;20049;-85
2022/08/07 11:40:34;;;;;;;2.40;1.73;;;30.10;47.20;;;;;;4952893;28;20046;-83
2022/08/07 11:43:22;;;;;;;2.75;1.70;;;29.80;46.80;;;;;;4998787;28;20132;-85
2022/08/07 11:46:03;;;;;;;3.53;1.50;;;30.00;44.70;;;;;;4981215;28;20531;-85
2022/08/07 11:48:41;;;;;;;3.58;2.72;;;30.00;45.20;;;;;;4999163;28;20416;-84
2022/08/07 11:51:27;;;;;;;2.35;1.50;;;30.00;44.90;;;;;;4964939;28;20053;-84
2022/08/07 11:54:06;;;;;;;1.95;1.52;;;29.60;44.30;;;;;;4951619;28;20133;-83
2022/08/07 11:57:01;;;;;;;2.85;1.60;;;30.10;45.30;;;;;;4949073;28;20136;-83
2022/08/07 11:59:59;;;;;;;4.38;1.58;;;29.90;43.80;;;;;;4996681;28;20052;-84
2022/08/07 12:02:41;;;;;;;2.45;1.63;;;30.30;44.10;;;;;;4997665;28;20046;-84
2022/08/07 12:05:29;;;;;;;6.97;5.18;;;29.80;45.00;;;;;;4981072;28;20054;-77
2022/08/07 12:08:19;;;;;;;4.07;1.80;;;29.90;45.60;;;;;;4994937;28;20073;-80
2022/08/07 12:10:59;;;;;;;2.80;1.60;;;29.80;44.20;;;;;;4963345;28;20424;-80
2022/08/07 12:13:37;;;;;;;;;;;30.10;44.00;;;;;;4995420;28;20053;-79
2022/08/07 12:16:08;;;;;;;3.92;2.13;;;29.60;44.30;;;;;;4997759;28;19928;-80
2022/08/07 12:18:44;;;;;;;2.72;2.45;;;30.10;44.40;;;;;;4982511;28;20512;-79
2022/08/07 12:21:33;;;;;;;3.15;1.63;;;30.20;44.60;;;;;;4939378;28;20137;-80
2022/08/07 12:24:14;;;;;;;3.45;2.42;;;30.20;43.50;;;;;;4989879;28;20050;-78
2022/08/07 12:26:43;;;;;;;;;;;30.30;42.00;;;;;;4967649;28;20078;-81
2022/08/07 12:29:24;;;;;;;3.20;2.20;;;29.60;41.40;;;;;;4988566;28;20015;-81
2022/08/07 12:32:02;;;;;;;3.92;2.90;;;29.80;43.20;;;;;;5017253;28;20068;-80
2022/08/07 12:34:33;;;;;;;3.60;2.58;;;30.20;44.40;;;;;;5020052;28;20053;-81
2022/08/07 12:37:00;;;;;;;3.60;1.73;;;30.30;42.90;;;;;;4985785;28;20045;-81
2022/08/07 12:39:29;;;;;;;2.53;1.20;;;30.20;42.10;;;;;;4987618;28;20053;-81
2022/08/07 12:41:57;;;;;;;2.35;1.40;;;30.50;41.80;;;;;;4951799;28;20188;-81
2022/08/07 12:44:26;;;;;;;2.38;1.60;;;30.30;42.20;;;;;;4956911;28;20835;-81
2022/08/07 12:47:21;;;;;;;3.22;1.50;;;30.70;41.40;;;;;;4982303;28;20046;-81
2022/08/07 12:50:01;;;;;;;2.70;1.38;;;30.60;39.40;;;;;;4996123;28;20517;-80
2022/08/07 12:52:33;;;;;;;2.55;1.00;;;30.50;40.00;;;;;;4982450;28;20422;-81
2022/08/07 12:55:23;;;;;;;1.67;1.10;;;30.40;38.30;;;;;;4986370;28;20694;-80
2022/08/07 12:57:50;;;;;;;2.13;1.27;;;30.60;37.80;;;;;;4966001;28;20060;-79
2022/08/07 13:00:17;;;;;;;9.27;8.43;;;30.90;38.70;;;;;;4987345;28;20065;-82
2022/08/07 13:03:25;;;;;;;4.63;2.42;;;31.00;38.50;;;;;;4995043;28;20050;-83
2022/08/07 13:05:55;;;;;;;2.53;1.77;;;30.90;39.70;;;;;;4983178;28;20045;-83
2022/08/07 13:09:18;;;;;;;4.10;3.22;;;31.10;38.40;;;;;;4948705;28;20928;-79
2022/08/07 13:12:06;;;;;;;2.90;1.42;;;31.20;39.90;;;;;;4944865;28;20078;-79
2022/08/07 13:14:57;;;;;;;2.17;1.35;;;30.90;37.70;;;;;;4944644;28;20683;-81
2022/08/07 13:17:38;;;;;;;7.20;6.50;;;31.20;38.90;;;;;;4983541;28;20367;-81
2022/08/07 13:20:24;;;;;;;2.53;1.48;;;31.70;39.00;;;;;;4996050;28;20065;-80
2022/08/07 13:23:16;;;;;;;2.17;1.55;;;31.70;37.50;;;;;;4993537;28;20061;-81
2022/08/07 13:25:49;;;;;;;3.60;1.77;;;31.60;38.10;;;;;;4959280;28;20080;-79